Time;durP1;ratioP1;P1;durP2;ratioP2;P2;SDS_P1;SDS_P2;PMS_P1;PMS_P2;Temp;Humidity;BMP_temperature;BMP_pressure;BME280_temperature;BME280_humidity;BME280_pressure;Samples;Min_cycle;Max_cycle;Signal;HPM_P1;HPM_P2
2023/09/28 00:00:45;;;;;;;7.32;1.10;;;15.30;99.90;;;;;;5020736;28;20057;-58
2023/09/28 00:03:13;;;;;;;5.15;1.17;;;15.30;99.90;;;;;;5018757;28;20435;-58
2023/09/28 00:05:41;;;;;;;7.65;1.75;;;15.30;99.90;;;;;;5026025;28;20254;-58
2023/09/28 00:08:09;;;;;;;6.63;1.17;;;15.30;99.90;;;;;;5031639;28;20044;-58
2023/09/28 00:10:37;;;;;;;7.90;1.10;;;15.30;99.90;;;;;;5034722;28;20389;-59
2023/09/28 00:13:04;;;;;;;7.78;1.42;;;15.30;99.90;;;;;;5026406;28;20385;-59
2023/09/28 00:15:32;;;;;;;7.35;1.15;;;15.30;99.90;;;;;;5002576;28;20057;-59
2023/09/28 00:18:00;;;;;;;3.75;0.65;;;15.20;99.90;;;;;;5020671;28;20045;-58
2023/09/28 00:20:28;;;;;;;10.55;1.20;;;15.20;99.90;;;;;;5029732;28;20060;-58
2023/09/28 00:22:56;;;;;;;7.90;1.48;;;15.30;99.90;;;;;;5018003;28;20052;-58
2023/09/28 00:25:24;;;;;;;7.65;1.13;;;15.30;99.90;;;;;;5029237;28;20045;-58
2023/09/28 00:27:55;;;;;;;7.25;1.33;;;15.20;99.90;;;;;;5026579;28;20049;-58
2023/09/28 00:30:26;;;;;;;8.93;1.10;;;15.30;99.90;;;;;;5029917;28;20046;-58
2023/09/28 00:32:56;;;;;;;8.50;1.20;;;15.20;99.90;;;;;;5022641;28;20050;-58
2023/09/28 00:35:26;;;;;;;7.03;1.00;;;15.20;99.90;;;;;;5035958;28;20079;-58
2023/09/28 00:37:54;;;;;;;5.50;1.02;;;15.30;99.90;;;;;;5026716;28;20045;-58
2023/09/28 00:40:28;;;;;;;6.82;1.25;;;15.20;99.90;;;;;;5029300;28;20065;-59
2023/09/28 00:42:56;;;;;;;10.13;1.50;;;15.30;99.90;;;;;;5030681;28;20046;-58
2023/09/28 00:45:26;;;;;;;2.50;0.80;;;15.30;99.90;;;;;;5027580;28;20061;-58
2023/09/28 00:47:59;;;;;;;9.27;1.33;;;15.20;99.90;;;;;;5012551;28;20069;-58
2023/09/28 00:50:33;;;;;;;6.75;1.02;;;15.20;99.90;;;;;;5019469;28;20049;-58
2023/09/28 00:53:07;;;;;;;7.88;1.15;;;15.20;99.90;;;;;;5027414;28;20067;-59
2023/09/28 00:55:37;;;;;;;7.68;0.98;;;15.20;99.90;;;;;;5028639;28;20060;-59
2023/09/28 00:58:05;;;;;;;15.33;0.97;;;15.20;99.90;;;;;;5030674;28;20049;-59
2023/09/28 01:00:34;;;;;;;10.15;1.50;;;15.10;99.90;;;;;;5011493;28;20302;-59
2023/09/28 01:03:06;;;;;;;7.30;0.95;;;15.10;99.90;;;;;;5005833;28;20053;-59
2023/09/28 01:05:39;;;;;;;12.32;1.77;;;15.10;99.90;;;;;;5015556;28;20045;-59
2023/09/28 01:08:14;;;;;;;9.65;1.30;;;15.10;99.90;;;;;;5031267;28;20061;-59
2023/09/28 01:10:43;;;;;;;10.80;1.35;;;15.10;99.90;;;;;;5022583;28;20042;-58
2023/09/28 01:13:15;;;;;;;7.35;1.40;;;15.10;99.90;;;;;;5021985;28;20049;-59
2023/09/28 01:15:48;;;;;;;11.95;1.85;;;15.10;99.90;;;;;;5026492;28;20474;-59
2023/09/28 01:18:18;;;;;;;9.38;1.35;;;15.10;99.90;;;;;;5023536;28;20041;-59
2023/09/28 01:20:47;;;;;;;11.80;1.98;;;15.20;99.90;;;;;;5029332;28;20053;-60
2023/09/28 01:23:15;;;;;;;12.32;1.52;;;15.20;99.90;;;;;;5027102;28;20065;-60
2023/09/28 01:25:46;;;;;;;19.30;2.00;;;15.10;99.90;;;;;;5029616;28;20053;-60
2023/09/28 01:28:16;;;;;;;;;;;15.20;99.90;;;;;;5029718;28;20764;-59
2023/09/28 01:30:46;;;;;;;18.25;2.40;;;15.20;99.90;;;;;;5020045;28;19929;-59
2023/09/28 01:33:14;;;;;;;11.05;1.63;;;15.20;99.90;;;;;;5040896;28;20052;-59
2023/09/28 01:35:42;;;;;;;13.23;1.63;;;15.20;99.90;;;;;;5010796;28;20050;-58
2023/09/28 01:38:32;;;;;;;12.68;1.70;;;15.20;99.90;;;;;;5031419;28;20038;-58
2023/09/28 01:41:03;;;;;;;14.85;2.13;;;15.20;99.90;;;;;;5031602;28;20045;-58
2023/09/28 01:43:30;;;;;;;10.65;1.80;;;15.10;99.90;;;;;;5030885;28;20045;-58
2023/09/28 01:45:58;;;;;;;8.63;1.52;;;15.20;99.90;;;;;;5029777;28;20041;-58
2023/09/28 01:48:26;;;;;;;14.82;2.15;;;15.20;99.90;;;;;;4998056;28;20065;-58
2023/09/28 01:50:53;;;;;;;27.88;2.35;;;15.20;99.90;;;;;;5012627;28;20053;-59
2023/09/28 01:53:21;;;;;;;13.73;1.30;;;15.20;99.90;;;;;;5030602;28;20509;-59
2023/09/28 01:55:51;;;;;;;15.88;2.20;;;15.20;99.90;;;;;;5032734;28;20041;-59
2023/09/28 01:58:18;;;;;;;14.48;1.95;;;15.20;99.90;;;;;;5028563;28;20052;-58
2023/09/28 02:00:46;;;;;;;11.85;1.67;;;15.20;99.90;;;;;;5030903;28;20041;-59
2023/09/28 02:03:14;;;;;;;12.80;2.10;;;15.20;99.90;;;;;;5030219;28;20049;-60
2023/09/28 02:05:43;;;;;;;16.95;1.88;;;15.20;99.90;;;;;;5027762;28;20064;-59
2023/09/28 02:08:10;;;;;;;12.60;1.90;;;15.20;99.90;;;;;;5030472;28;20048;-60
2023/09/28 02:10:40;;;;;;;13.13;1.75;;;15.20;99.90;;;;;;5031203;28;20048;-59
2023/09/28 02:13:08;;;;;;;11.77;1.90;;;15.10;99.90;;;;;;5027929;28;20378;-59
2023/09/28 02:15:37;;;;;;;20.98;2.92;;;15.10;99.90;;;;;;5031973;28;20052;-59
2023/09/28 02:18:04;;;;;;;13.60;1.63;;;15.10;99.90;;;;;;5029463;28;20049;-59
2023/09/28 02:20:34;;;;;;;11.38;2.00;;;15.00;99.90;;;;;;5027225;28;20050;-59
2023/09/28 02:23:02;;;;;;;16.55;1.92;;;15.10;99.90;;;;;;5030757;28;20049;-59
2023/09/28 02:25:30;;;;;;;11.40;1.50;;;15.00;99.90;;;;;;5032032;28;20052;-59
2023/09/28 02:27:58;;;;;;;15.60;2.08;;;15.00;99.90;;;;;;5030891;28;20393;-60
2023/09/28 02:30:26;;;;;;;15.23;2.35;;;15.00;99.90;;;;;;5031587;28;20057;-59
2023/09/28 02:32:55;;;;;;;16.63;2.20;;;15.10;99.90;;;;;;5029081;28;20045;-59
2023/09/28 02:35:24;;;;;;;13.10;2.15;;;15.10;99.90;;;;;;5030797;28;20052;-59
2023/09/28 02:37:53;;;;;;;11.10;1.75;;;15.00;99.90;;;;;;5031501;28;20052;-59
2023/09/28 02:40:23;;;;;;;16.20;2.60;;;15.00;99.90;;;;;;5031525;28;20056;-59
2023/09/28 02:42:52;;;;;;;12.38;1.77;;;15.00;99.90;;;;;;5032487;28;20049;-59
2023/09/28 02:45:19;;;;;;;17.55;2.35;;;15.00;99.90;;;;;;5050991;28;20045;-59
2023/09/28 02:47:48;;;;;;;22.52;2.55;;;14.90;99.90;;;;;;5019483;28;20057;-58
2023/09/28 02:50:18;;;;;;;14.05;2.25;;;14.90;99.90;;;;;;5029412;28;20046;-59
2023/09/28 02:52:46;;;;;;;17.23;2.28;;;14.90;99.90;;;;;;5031639;28;20046;-59
2023/09/28 02:55:17;;;;;;;14.07;2.88;;;14.90;99.90;;;;;;5030828;28;20053;-58
2023/09/28 02:57:47;;;;;;;12.30;2.58;;;14.90;99.90;;;;;;5020924;28;20058;-58
2023/09/28 03:02:46;;;;;;;18.95;2.70;;;14.90;99.90;;;;;;5030265;28;20050;-59
2023/09/28 03:05:16;;;;;;;11.40;1.90;;;14.80;99.90;;;;;;5020513;28;20045;-58
2023/09/28 03:07:46;;;;;;;19.35;3.35;;;14.80;99.90;;;;;;5014199;28;20053;-58
2023/09/28 03:10:14;;;;;;;12.68;2.10;;;14.80;99.90;;;;;;5022957;28;20054;-59
2023/09/28 03:12:46;;;;;;;14.85;2.40;;;14.80;99.90;;;;;;5031133;28;20053;-59
2023/09/28 03:15:18;;;;;;;13.60;1.77;;;14.80;99.90;;;;;;5028251;28;20049;-59
2023/09/28 03:17:46;;;;;;;16.08;1.92;;;14.70;99.90;;;;;;5030399;28;20042;-59
2023/09/28 03:20:15;;;;;;;16.52;2.00;;;14.70;99.90;;;;;;5014414;28;20050;-59
2023/09/28 03:22:45;;;;;;;20.77;2.67;;;14.70;99.90;;;;;;5011387;28;20046;-59
2023/09/28 03:25:17;;;;;;;16.65;3.17;;;14.70;99.90;;;;;;5026001;28;20044;-59
2023/09/28 03:27:54;;;;;;;14.20;2.47;;;14.70;99.90;;;;;;5011610;28;20042;-59
2023/09/28 03:30:24;;;;;;;13.45;2.15;;;14.70;99.90;;;;;;5026569;28;20054;-59
2023/09/28 03:32:53;;;;;;;7.95;1.55;;;14.70;99.90;;;;;;5025493;28;20042;-60
2023/09/28 03:35:21;;;;;;;14.85;1.90;;;14.70;99.90;;;;;;5011193;28;20053;-59
2023/09/28 03:37:59;;;;;;;15.40;2.00;;;14.70;99.90;;;;;;5014422;28;20050;-59
2023/09/28 03:40:33;;;;;;;15.27;2.50;;;14.70;99.90;;;;;;5030475;28;20045;-59
2023/09/28 03:43:01;;;;;;;12.57;2.35;;;14.70;99.90;;;;;;5029911;28;20052;-59
2023/09/28 03:45:29;;;;;;;21.98;3.35;;;14.60;99.90;;;;;;5030849;28;20417;-60
2023/09/28 03:47:57;;;;;;;14.02;2.42;;;14.70;99.90;;;;;;5029566;28;20049;-60
2023/09/28 03:50:25;;;;;;;13.65;1.92;;;14.60;99.90;;;;;;5030978;28;20413;-60
2023/09/28 03:52:52;;;;;;;15.65;2.28;;;14.60;99.90;;;;;;5029925;28;20041;-60
2023/09/28 03:55:23;;;;;;;14.90;1.90;;;14.60;99.90;;;;;;5036507;28;20045;-61
2023/09/28 03:57:51;;;;;;;15.70;2.00;;;14.60;99.90;;;;;;5033982;28;20048;-60
2023/09/28 04:00:20;;;;;;;21.83;2.72;;;14.60;99.90;;;;;;5031366;28;20046;-59
2023/09/28 04:02:50;;;;;;;17.05;2.30;;;14.60;99.90;;;;;;5015043;28;20046;-58
2023/09/28 04:05:25;;;;;;;11.40;2.60;;;14.60;99.90;;;;;;5014898;28;20053;-59
2023/09/28 04:07:52;;;;;;;13.32;2.22;;;14.60;99.90;;;;;;5030912;28;20516;-58
2023/09/28 04:10:21;;;;;;;17.15;2.38;;;14.60;99.90;;;;;;5028482;28;20060;-59
2023/09/28 04:12:54;;;;;;;16.00;2.38;;;14.60;99.90;;;;;;5024026;28;20054;-59
2023/09/28 04:15:25;;;;;;;12.77;3.15;;;14.50;99.90;;;;;;5015006;28;20381;-58
2023/09/28 04:17:53;;;;;;;15.45;2.42;;;14.60;99.90;;;;;;5013999;28;20057;-58
2023/09/28 04:20:21;;;;;;;17.70;2.45;;;14.60;99.90;;;;;;5014860;28;20058;-59
2023/09/28 04:22:48;;;;;;;16.80;2.03;;;14.60;99.90;;;;;;5021202;28;20053;-59
2023/09/28 04:25:19;;;;;;;16.92;2.47;;;14.60;99.90;;;;;;5033516;28;20049;-59
2023/09/28 04:27:49;;;;;;;16.15;2.20;;;14.60;99.90;;;;;;5034353;28;20045;-59
2023/09/28 04:30:17;;;;;;;;;;;14.50;99.90;;;;;;5034404;28;20073;-58
2023/09/28 04:32:50;;;;;;;15.65;1.83;;;14.50;99.90;;;;;;5033941;28;19921;-59
2023/09/28 04:35:18;;;;;;;11.68;2.33;;;14.50;99.90;;;;;;5033889;28;20639;-59
2023/09/28 04:37:47;;;;;;;17.15;2.03;;;14.50;99.90;;;;;;5033838;28;20113;-59
2023/09/28 04:40:16;;;;;;;20.27;2.67;;;14.50;99.90;;;;;;5035942;28;20065;-59
2023/09/28 04:42:44;;;;;;;15.60;2.05;;;14.50;99.90;;;;;;5034072;28;20065;-59
2023/09/28 04:45:12;;;;;;;11.48;2.20;;;14.40;99.90;;;;;;5032540;28;20116;-59
2023/09/28 04:47:42;;;;;;;15.77;2.33;;;14.40;99.90;;;;;;5024585;28;20060;-59
2023/09/28 04:50:10;;;;;;;9.48;1.85;;;14.40;99.90;;;;;;5016226;28;20034;-59
2023/09/28 04:52:38;;;;;;;12.55;1.67;;;14.40;99.90;;;;;;5028707;28;20064;-59
2023/09/28 04:55:07;;;;;;;11.05;1.88;;;14.40;99.90;;;;;;5028981;28;20052;-59
2023/09/28 04:57:35;;;;;;;11.57;1.90;;;14.30;99.90;;;;;;5032839;28;20049;-59
2023/09/28 05:00:06;;;;;;;9.43;1.55;;;14.30;99.90;;;;;;5049805;28;20148;-59
2023/09/28 05:02:34;;;;;;;10.02;1.60;;;14.30;99.90;;;;;;5026402;28;20044;-59
2023/09/28 05:05:05;;;;;;;12.45;2.15;;;14.20;99.90;;;;;;5014113;28;20887;-59
2023/09/28 05:07:34;;;;;;;15.45;1.55;;;14.10;99.90;;;;;;5026633;28;20045;-59
2023/09/28 05:10:03;;;;;;;7.80;2.03;;;14.10;99.90;;;;;;5028943;28;20171;-59
2023/09/28 05:12:30;;;;;;;9.77;1.42;;;14.10;99.90;;;;;;5027426;28;20046;-59
2023/09/28 05:15:02;;;;;;;13.45;1.83;;;14.10;99.90;;;;;;5012154;28;20053;-59
2023/09/28 05:17:32;;;;;;;21.15;2.10;;;14.10;99.90;;;;;;5023245;28;20052;-59
2023/09/28 05:20:02;;;;;;;11.32;2.00;;;14.10;99.90;;;;;;5006999;28;20406;-59
2023/09/28 05:22:30;;;;;;;20.27;2.65;;;14.10;99.90;;;;;;5016151;28;20043;-59
2023/09/28 05:24:58;;;;;;;8.85;1.20;;;14.10;99.90;;;;;;5029303;28;20634;-59
2023/09/28 05:27:25;;;;;;;13.90;2.38;;;14.10;99.90;;;;;;5028451;28;20478;-59
2023/09/28 05:29:53;;;;;;;16.05;1.58;;;14.10;99.90;;;;;;5029484;28;20064;-58
2023/09/28 05:32:21;;;;;;;15.23;1.92;;;14.10;99.90;;;;;;5033237;28;20045;-59
2023/09/28 05:34:49;;;;;;;20.48;2.30;;;14.10;99.90;;;;;;5027571;28;20041;-59
2023/09/28 05:37:17;;;;;;;12.82;2.10;;;14.10;99.90;;;;;;5027808;28;20045;-59
2023/09/28 05:39:44;;;;;;;15.25;1.85;;;14.00;99.90;;;;;;5042261;28;20289;-59
2023/09/28 05:42:12;;;;;;;14.40;1.75;;;14.00;99.90;;;;;;5027505;28;20046;-59
2023/09/28 05:44:40;;;;;;;13.80;2.28;;;14.00;99.90;;;;;;5028316;28;20405;-59
2023/09/28 05:47:08;;;;;;;19.13;2.13;;;14.00;99.90;;;;;;5026160;28;20053;-59
2023/09/28 05:49:36;;;;;;;13.63;1.88;;;14.00;99.90;;;;;;5008986;28;20061;-59
2023/09/28 05:52:03;;;;;;;14.85;2.28;;;14.00;99.90;;;;;;5026263;28;20041;-59
2023/09/28 05:54:32;;;;;;;11.40;2.17;;;14.00;99.90;;;;;;5045423;28;20041;-59
2023/09/28 05:57:00;;;;;;;16.17;2.28;;;14.00;99.90;;;;;;5027749;28;20045;-59
2023/09/28 05:59:27;;;;;;;17.10;2.28;;;14.00;99.90;;;;;;5029070;28;20057;-60
2023/09/28 06:01:55;;;;;;;13.75;2.33;;;14.00;99.90;;;;;;5030175;28;20045;-60
2023/09/28 06:04:25;;;;;;;14.98;2.20;;;14.00;99.90;;;;;;5019402;28;20394;-59
2023/09/28 06:06:53;;;;;;;12.60;2.30;;;14.00;99.90;;;;;;5019954;28;20477;-59
2023/09/28 06:09:21;;;;;;;15.93;2.17;;;14.00;99.90;;;;;;5046995;28;20530;-59
2023/09/28 06:11:49;;;;;;;23.13;2.50;;;14.00;99.90;;;;;;5030953;28;20045;-59
2023/09/28 06:14:17;;;;;;;14.82;2.15;;;14.00;99.90;;;;;;5028632;28;20045;-59
2023/09/28 06:16:45;;;;;;;14.57;1.63;;;14.00;99.90;;;;;;5026800;28;20049;-59
2023/09/28 06:19:13;;;;;;;16.48;2.00;;;13.90;99.90;;;;;;5016814;28;20267;-60
2023/09/28 06:21:41;;;;;;;15.68;2.08;;;13.90;99.90;;;;;;5013773;28;20042;-59
2023/09/28 06:24:08;;;;;;;11.52;2.15;;;13.90;99.90;;;;;;5014351;28;20046;-61
2023/09/28 06:26:37;;;;;;;11.88;1.83;;;13.80;99.90;;;;;;5066010;28;20301;-60
2023/09/28 06:29:10;;;;;;;13.80;2.67;;;13.80;99.90;;;;;;5026945;28;20750;-60
2023/09/28 06:31:39;;;;;;;14.50;2.85;;;13.80;99.90;;;;;;5026400;28;20397;-59
2023/09/28 06:34:06;;;;;;;14.63;2.25;;;13.70;99.90;;;;;;5018352;28;20529;-58
2023/09/28 06:36:34;;;;;;;23.00;2.63;;;13.70;99.90;;;;;;5018137;28;20055;-59
2023/09/28 06:39:05;;;;;;;15.25;1.95;;;13.70;99.90;;;;;;5042686;28;20037;-59
2023/09/28 06:41:33;;;;;;;16.60;2.17;;;13.70;99.90;;;;;;5032827;28;20052;-59
2023/09/28 06:44:01;;;;;;;10.25;1.77;;;13.70;99.90;;;;;;5042044;28;20042;-59
2023/09/28 06:46:29;;;;;;;8.93;1.80;;;13.70;99.90;;;;;;5004558;28;20057;-59
2023/09/28 06:48:57;;;;;;;15.45;2.08;;;13.70;99.90;;;;;;5018632;28;20057;-59
2023/09/28 06:51:26;;;;;;;22.20;2.13;;;13.70;99.90;;;;;;5020283;28;20053;-59
2023/09/28 06:53:54;;;;;;;19.50;2.85;;;13.70;99.90;;;;;;5021424;28;20385;-59
2023/09/28 06:56:22;;;;;;;13.13;2.08;;;13.80;99.90;;;;;;5030438;28;20349;-59
2023/09/28 06:58:52;;;;;;;13.50;2.20;;;13.80;99.90;;;;;;5032641;28;20571;-58
2023/09/28 07:01:21;;;;;;;10.50;1.90;;;13.80;99.90;;;;;;5022875;28;20037;-59
2023/09/28 07:03:52;;;;;;;14.85;1.95;;;13.90;99.90;;;;;;5017706;28;20478;-58
2023/09/28 07:06:24;;;;;;;18.15;2.47;;;13.90;99.90;;;;;;5025616;28;20486;-59
2023/09/28 07:08:55;;;;;;;15.43;1.88;;;13.90;99.90;;;;;;5023030;28;20033;-59
2023/09/28 07:11:24;;;;;;;11.23;1.75;;;13.90;99.90;;;;;;5022816;28;20037;-59
2023/09/28 07:13:54;;;;;;;13.02;2.42;;;13.90;99.90;;;;;;5040917;28;20044;-59
2023/09/28 07:16:22;;;;;;;9.20;2.00;;;14.00;99.90;;;;;;5043081;28;20053;-59
2023/09/28 07:18:50;;;;;;;16.48;2.72;;;13.90;99.90;;;;;;5031052;28;20042;-60
2023/09/28 07:21:18;;;;;;;11.90;1.65;;;14.00;99.90;;;;;;5003402;28;20042;-60
2023/09/28 07:23:46;;;;;;;10.93;1.77;;;14.00;99.90;;;;;;5037138;28;20037;-61
2023/09/28 07:26:18;;;;;;;16.88;2.17;;;14.00;99.90;;;;;;5036986;28;20044;-61
2023/09/28 07:28:48;;;;;;;11.10;2.38;;;14.10;99.90;;;;;;5028393;28;20060;-59
2023/09/28 07:31:17;;;;;;;15.77;1.85;;;14.10;99.90;;;;;;5028068;28;20053;-59
2023/09/28 07:33:44;;;;;;;18.27;2.50;;;14.10;99.90;;;;;;5041048;28;20850;-59
2023/09/28 07:36:12;;;;;;;9.85;1.83;;;14.10;99.90;;;;;;5037573;28;20481;-60
2023/09/28 07:38:40;;;;;;;12.23;1.90;;;14.10;99.90;;;;;;5033620;28;20045;-59
2023/09/28 07:41:08;;;;;;;11.30;2.03;;;14.10;99.90;;;;;;5026407;28;20045;-59
2023/09/28 07:43:36;;;;;;;15.27;2.05;;;14.10;99.90;;;;;;5027429;28;20044;-59
2023/09/28 07:46:04;;;;;;;12.80;2.45;;;14.10;99.90;;;;;;5026681;28;20056;-59
2023/09/28 07:48:31;;;;;;;15.40;2.45;;;14.10;99.90;;;;;;5032407;28;20052;-59
2023/09/28 07:50:59;;;;;;;11.63;1.85;;;14.20;99.90;;;;;;5034497;28;20052;-60
2023/09/28 07:53:28;;;;;;;13.93;2.10;;;14.20;99.90;;;;;;5047163;28;20063;-59
2023/09/28 07:55:56;;;;;;;12.80;2.63;;;14.20;99.90;;;;;;5046270;28;20813;-59
2023/09/28 07:58:24;;;;;;;19.05;3.33;;;14.30;99.90;;;;;;5040499;28;20571;-59
2023/09/28 08:00:54;;;;;;;13.88;1.88;;;14.30;99.90;;;;;;5027082;28;20064;-59
2023/09/28 08:03:22;;;;;;;18.10;2.05;;;14.30;99.90;;;;;;5027784;28;20049;-59
2023/09/28 08:05:53;;;;;;;19.48;2.28;;;14.40;99.90;;;;;;5012725;28;20045;-59
2023/09/28 08:08:21;;;;;;;18.85;2.72;;;14.40;99.90;;;;;;5028700;28;20050;-59
2023/09/28 08:10:50;;;;;;;14.98;2.15;;;14.50;99.90;;;;;;5031245;28;20069;-59
2023/09/28 08:13:19;;;;;;;14.38;2.55;;;14.50;99.90;;;;;;5031086;28;20411;-59
2023/09/28 08:15:46;;;;;;;13.25;2.45;;;14.50;99.90;;;;;;5030812;28;20520;-59
2023/09/28 08:18:14;;;;;;;12.68;2.22;;;14.60;99.90;;;;;;5039448;28;20052;-60
2023/09/28 08:20:43;;;;;;;17.10;2.42;;;14.60;99.90;;;;;;5024108;28;20054;-60
2023/09/28 08:23:32;;;;;;;13.63;1.90;;;14.60;99.90;;;;;;5030585;28;20049;-60
2023/09/28 08:26:00;;;;;;;13.95;2.75;;;14.60;99.90;;;;;;5030718;28;20049;-60
2023/09/28 08:28:27;;;;;;;19.42;2.92;;;14.60;99.90;;;;;;5037728;28;20045;-60
2023/09/28 08:30:56;;;;;;;22.90;3.50;;;14.70;99.90;;;;;;5050134;28;20053;-60
2023/09/28 08:33:25;;;;;;;19.97;2.43;;;14.70;99.90;;;;;;5050282;28;20543;-61
2023/09/28 08:35:52;;;;;;;17.80;2.83;;;14.70;99.90;;;;;;5032159;28;20309;-61
2023/09/28 08:38:20;;;;;;;19.60;2.65;;;14.80;99.90;;;;;;5030210;28;20053;-60
2023/09/28 08:40:58;;;;;;;18.02;2.70;;;14.80;99.90;;;;;;5029227;28;20513;-59
2023/09/28 08:43:32;;;;;;;19.55;2.47;;;14.80;99.90;;;;;;5012825;28;20069;-60
2023/09/28 08:46:03;;;;;;;13.63;2.60;;;14.80;99.90;;;;;;5029221;28;20052;-61
2023/09/28 08:48:36;;;;;;;25.98;3.35;;;14.80;99.90;;;;;;5037471;28;20604;-60
2023/09/28 08:51:10;;;;;;;16.95;2.63;;;14.80;99.90;;;;;;5019033;28;20049;-59
2023/09/28 08:53:40;;;;;;;27.05;3.25;;;14.80;99.90;;;;;;5033119;28;20397;-61
2023/09/28 08:56:08;;;;;;;18.75;2.53;;;14.70;99.90;;;;;;5030486;28;20057;-61
2023/09/28 08:58:36;;;;;;;17.75;2.60;;;14.70;99.90;;;;;;5030280;28;20041;-60
2023/09/28 09:01:06;;;;;;;15.73;3.53;;;14.60;99.90;;;;;;5020360;28;20042;-59
2023/09/28 09:03:36;;;;;;;18.95;2.88;;;14.60;99.90;;;;;;5011585;28;20053;-59
2023/09/28 09:06:06;;;;;;;23.35;3.17;;;14.50;99.90;;;;;;5015275;28;20060;-60
2023/09/28 09:08:35;;;;;;;27.45;3.83;;;14.50;99.90;;;;;;5029322;28;20050;-60
2023/09/28 09:11:03;;;;;;;26.05;2.83;;;14.40;99.90;;;;;;5029620;28;20054;-59
2023/09/28 09:13:33;;;;;;;16.67;2.60;;;14.40;99.90;;;;;;5029426;28;20052;-59
2023/09/28 09:16:00;;;;;;;21.48;2.85;;;14.40;99.90;;;;;;5029674;28;20057;-59
2023/09/28 09:18:28;;;;;;;19.58;3.03;;;14.40;99.90;;;;;;5029540;28;20049;-60
2023/09/28 09:21:00;;;;;;;18.40;2.78;;;14.40;99.90;;;;;;5018548;28;21092;-59
2023/09/28 09:23:32;;;;;;;19.58;3.25;;;14.40;99.90;;;;;;5028255;28;20052;-59
2023/09/28 09:26:00;;;;;;;12.98;2.92;;;14.40;99.90;;;;;;5029768;28;20034;-59
2023/09/28 09:28:33;;;;;;;15.23;2.40;;;14.40;99.90;;;;;;5011519;28;20054;-59
2023/09/28 09:31:01;;;;;;;19.08;3.35;;;14.40;99.90;;;;;;5029423;28;20052;-59
2023/09/28 09:33:29;;;;;;;20.88;2.40;;;14.40;99.90;;;;;;5026983;28;20717;-59
2023/09/28 09:35:58;;;;;;;25.17;2.47;;;14.40;99.90;;;;;;5025085;28;20374;-59
2023/09/28 09:38:29;;;;;;;18.95;3.13;;;14.40;99.90;;;;;;5027657;28;20072;-59
2023/09/28 09:41:02;;;;;;;18.70;2.58;;;14.40;99.90;;;;;;5028404;28;20044;-59
2023/09/28 09:43:41;;;;;;;21.55;3.15;;;14.40;99.90;;;;;;5028823;28;20045;-60
2023/09/28 09:46:09;;;;;;;23.67;3.17;;;14.40;99.90;;;;;;5029280;28;20050;-59
2023/09/28 09:48:42;;;;;;;13.32;2.58;;;14.40;99.90;;;;;;5036710;28;20050;-59
2023/09/28 09:51:17;;;;;;;21.10;3.30;;;14.40;99.90;;;;;;5011134;28;21279;-59
2023/09/28 09:53:46;;;;;;;16.75;2.33;;;14.40;99.90;;;;;;5027970;28;20401;-59
2023/09/28 09:56:15;;;;;;;13.95;2.78;;;14.50;99.90;;;;;;5009389;28;20042;-60
2023/09/28 09:58:48;;;;;;;14.70;2.90;;;14.50;99.90;;;;;;5033350;28;20062;-59
2023/09/28 10:01:17;;;;;;;18.55;2.88;;;14.50;99.90;;;;;;5025815;28;20060;-60
2023/09/28 10:03:51;;;;;;;16.10;3.53;;;14.50;99.90;;;;;;5027500;28;20057;-59
2023/09/28 10:06:23;;;;;;;19.33;2.97;;;14.50;99.90;;;;;;5018935;28;20064;-59
2023/09/28 10:08:51;;;;;;;20.70;2.85;;;14.60;99.90;;;;;;5025364;28;20052;-59
2023/09/28 10:11:19;;;;;;;20.65;2.65;;;14.60;99.90;;;;;;5027561;28;20053;-59
2023/09/28 10:13:50;;;;;;;19.40;2.85;;;14.70;99.90;;;;;;5027182;28;20045;-59
2023/09/28 10:16:19;;;;;;;16.10;2.42;;;14.70;99.90;;;;;;5028634;28;20046;-60
2023/09/28 10:18:49;;;;;;;22.30;3.00;;;14.80;99.90;;;;;;5028238;28;20041;-59
2023/09/28 10:21:20;;;;;;;15.10;2.40;;;14.80;99.90;;;;;;5016791;28;20046;-59
2023/09/28 10:23:47;;;;;;;14.57;2.85;;;14.90;99.90;;;;;;5028418;28;20042;-59
2023/09/28 10:26:17;;;;;;;17.70;3.95;;;14.90;99.90;;;;;;5028480;28;20056;-59
2023/09/28 10:29:05;;;;;;;27.63;3.78;;;15.00;99.90;;;;;;5036845;28;20044;-60
2023/09/28 10:31:40;;;;;;;21.77;3.30;;;15.10;99.90;;;;;;5023966;28;20054;-59
2023/09/28 10:34:27;;;;;;;19.77;2.95;;;15.10;99.90;;;;;;5009214;28;20048;-60
2023/09/28 10:37:18;;;;;;;20.85;3.03;;;15.20;99.90;;;;;;5005356;28;20045;-59
2023/09/28 10:39:51;;;;;;;24.23;3.30;;;15.20;99.90;;;;;;5007120;28;20053;-60
2023/09/28 10:42:20;;;;;;;16.00;2.97;;;15.20;99.90;;;;;;5011945;28;20041;-59
2023/09/28 10:44:53;;;;;;;20.48;3.63;;;15.30;99.90;;;;;;5028465;28;20045;-60
2023/09/28 10:47:22;;;;;;;18.02;3.15;;;15.30;99.90;;;;;;5023193;28;20061;-60
2023/09/28 10:49:59;;;;;;;22.23;3.33;;;15.40;99.90;;;;;;5010865;28;20061;-60
2023/09/28 10:52:28;;;;;;;18.45;2.80;;;15.50;99.90;;;;;;5014556;28;20046;-59
2023/09/28 10:54:56;;;;;;;18.05;3.08;;;15.40;99.90;;;;;;5013056;28;20045;-60
2023/09/28 10:57:31;;;;;;;15.27;3.30;;;15.40;99.90;;;;;;5009212;28;20054;-59
2023/09/28 11:00:12;;;;;;;21.67;3.03;;;15.40;99.90;;;;;;5026738;28;20045;-60
2023/09/28 11:02:41;;;;;;;14.57;3.10;;;15.30;99.90;;;;;;5010573;28;20056;-60
2023/09/28 11:05:09;;;;;;;24.85;3.35;;;15.30;99.90;;;;;;5024696;28;20053;-60
2023/09/28 11:07:38;;;;;;;21.08;4.03;;;15.40;99.90;;;;;;5028989;28;20480;-60
2023/09/28 11:10:08;;;;;;;21.38;3.55;;;15.40;99.90;;;;;;5012013;28;20049;-61
2023/09/28 11:12:36;;;;;;;18.50;3.00;;;15.50;99.90;;;;;;5032010;28;20064;-60
2023/09/28 11:15:05;;;;;;;26.42;4.05;;;15.50;99.90;;;;;;5047827;28;20037;-60
2023/09/28 11:17:33;;;;;;;12.25;2.78;;;15.50;99.90;;;;;;5047414;28;20048;-61
2023/09/28 11:20:01;;;;;;;18.88;3.35;;;15.60;99.90;;;;;;5046694;28;20396;-61
2023/09/28 11:22:30;;;;;;;25.15;3.50;;;15.60;99.90;;;;;;5037897;28;20049;-61
2023/09/28 11:24:58;;;;;;;21.05;3.53;;;15.70;99.90;;;;;;5012313;28;20046;-61
2023/09/28 11:27:26;;;;;;;19.75;3.80;;;15.60;99.90;;;;;;5009276;28;20065;-60
2023/09/28 11:29:57;;;;;;;17.90;3.38;;;15.60;99.90;;;;;;5028352;28;20048;-61
2023/09/28 11:32:26;;;;;;;19.27;3.88;;;15.70;99.90;;;;;;5027319;28;20049;-60
2023/09/28 11:34:54;;;;;;;14.43;3.60;;;15.70;99.90;;;;;;5028006;28;20052;-59
2023/09/28 11:37:24;;;;;;;23.58;3.70;;;15.70;99.90;;;;;;5027516;28;20287;-59
2023/09/28 11:39:52;;;;;;;21.85;4.22;;;15.70;99.90;;;;;;5014316;28;20042;-59
2023/09/28 11:42:20;;;;;;;20.38;3.60;;;15.80;99.90;;;;;;5030327;28;20049;-60
2023/09/28 11:44:48;;;;;;;22.58;3.92;;;15.80;99.90;;;;;;5047412;28;20049;-59
2023/09/28 11:47:20;;;;;;;20.25;3.60;;;15.80;99.90;;;;;;5044399;28;20071;-59
2023/09/28 11:49:50;;;;;;;20.20;3.10;;;15.80;99.90;;;;;;5027380;28;20489;-59
2023/09/28 11:52:18;;;;;;;24.17;3.85;;;15.80;99.90;;;;;;5022180;28;20057;-60
2023/09/28 11:54:47;;;;;;;26.27;4.70;;;15.80;99.90;;;;;;5015934;28;20046;-60
2023/09/28 11:57:18;;;;;;;20.83;4.18;;;15.80;99.90;;;;;;5007904;28;20038;-60
2023/09/28 11:59:46;;;;;;;21.42;3.92;;;15.80;99.90;;;;;;5007796;28;20053;-59
2023/09/28 12:02:14;;;;;;;22.25;4.00;;;15.90;99.90;;;;;;5023678;28;20042;-59
2023/09/28 12:04:44;;;;;;;15.00;3.13;;;15.90;99.90;;;;;;5015212;28;20056;-59
2023/09/28 12:07:14;;;;;;;22.70;3.47;;;16.10;99.90;;;;;;5009376;28;20060;-60
2023/09/28 12:09:42;;;;;;;;;;;16.20;99.90;;;;;;5027475;28;20041;-59
2023/09/28 12:12:30;;;;;;;20.52;3.28;;;16.40;99.90;;;;;;5020681;28;19920;-59
2023/09/28 12:14:58;;;;;;;22.33;4.22;;;16.60;99.90;;;;;;5028616;28;20050;-59
2023/09/28 12:17:26;;;;;;;22.08;3.25;;;16.80;99.90;;;;;;5024375;28;20038;-59
2023/09/28 12:19:56;;;;;;;15.93;3.20;;;16.90;99.90;;;;;;5010054;28;20038;-59
2023/09/28 12:22:24;;;;;;;23.90;4.68;;;16.80;99.90;;;;;;5023519;28;20069;-60
2023/09/28 12:24:52;;;;;;;19.33;3.50;;;16.90;99.90;;;;;;5007690;28;20050;-60
2023/09/28 12:27:20;;;;;;;23.63;4.10;;;16.80;99.90;;;;;;5027035;28;20126;-60
2023/09/28 12:29:48;;;;;;;21.02;3.80;;;16.70;99.90;;;;;;5027431;28;20516;-60
2023/09/28 12:32:16;;;;;;;15.13;3.70;;;16.60;99.90;;;;;;5013587;28;20453;-60
2023/09/28 12:34:44;;;;;;;22.23;3.70;;;16.60;99.90;;;;;;5013603;28;20053;-60
2023/09/28 12:37:12;;;;;;;21.10;3.70;;;16.60;99.90;;;;;;5009640;28;20057;-60
2023/09/28 12:39:40;;;;;;;17.55;3.90;;;16.50;99.90;;;;;;5042227;28;20052;-59
2023/09/28 12:42:07;;;;;;;17.80;3.53;;;16.40;99.90;;;;;;5024586;28;20050;-60
2023/09/28 12:44:35;;;;;;;20.88;3.42;;;16.30;99.90;;;;;;5019425;28;20057;-60
2023/09/28 12:47:04;;;;;;;19.67;4.00;;;16.30;99.90;;;;;;5010864;28;20038;-59
2023/09/28 12:49:31;;;;;;;18.77;3.42;;;16.20;99.90;;;;;;5028182;28;20515;-60
2023/09/28 12:51:59;;;;;;;25.15;3.40;;;16.20;99.90;;;;;;5030269;28;20053;-60